Time;durP1;ratioP1;P1;durP2;ratioP2;P2;SDS_P1;SDS_P2;PMS_P1;PMS_P2;Temp;Humidity;BMP_temperature;BMP_pressure;BME280_temperature;BME280_humidity;BME280_pressure;Samples;Min_cycle;Max_cycle;Signal;HPM_P1;HPM_P2
2023/04/25 00:00:39;;;;;;;0.20;0.20;;;;;;;;;;4950631;28;20045;-88
2023/04/25 00:03:05;;;;;;;0.20;0.10;;;;;;;;;;4955133;28;20034;-89
2023/04/25 00:05:31;;;;;;;0.20;0.10;;;;;;;;;;4962547;28;20077;-88
2023/04/25 00:08:16;;;;;;;0.20;0.10;;;;;;;;;;4953734;28;20035;-89
2023/04/25 00:10:43;;;;;;;0.20;0.10;;;;;;;;;;4961877;28;20117;-88
2023/04/25 00:13:11;;;;;;;0.20;0.10;;;;;;;;;;4953077;28;20616;-88
2023/04/25 00:15:38;;;;;;;0.20;0.10;;;;;;;;;;4951731;28;20100;-88
2023/04/25 00:18:06;;;;;;;0.20;0.10;;;;;;;;;;4955045;28;20070;-87
2023/04/25 00:20:33;;;;;;;0.32;0.15;;;;;;;;;;4950003;28;20053;-89
2023/04/25 00:22:59;;;;;;;0.20;0.10;;;;;;;;;;4953945;28;20537;-88
2023/04/25 00:25:25;;;;;;;0.20;0.10;;;;;;;;;;4952696;28;20050;-86
2023/04/25 00:27:51;;;;;;;0.20;0.10;;;;;;;;;;4968505;28;20125;-87
2023/04/25 00:30:17;;;;;;;0.20;0.10;;;;;;;;;;4952720;28;20043;-88
2023/04/25 00:32:43;;;;;;;0.20;0.10;;;;;;;;;;4947469;28;20639;-89
2023/04/25 00:35:10;;;;;;;0.20;0.10;;;;;;;;;;4967696;28;20133;-89
2023/04/25 00:37:36;;;;;;;0.20;0.10;;;;;;;;;;4945567;28;20238;-89
2023/04/25 00:40:02;;;;;;;0.20;0.10;;;;;;;;;;4949462;28;20557;-88
2023/04/25 00:42:29;;;;;;;0.20;0.10;;;;;;;;;;4942344;28;20418;-88
2023/04/25 00:44:58;;;;;;;0.20;0.17;;;;;;;;;;4963469;28;20092;-89
2023/04/25 00:47:24;;;;;;;0.20;0.10;;;;;;;;;;4943684;28;20042;-87
2023/04/25 00:49:51;;;;;;;0.20;0.10;;;;;;;;;;4960720;28;20050;-88
2023/04/25 00:52:28;;;;;;;0.20;0.10;;;;;;;;;;4964146;28;20495;-88
2023/04/25 00:54:54;;;;;;;0.20;0.10;;;;;;;;;;4941978;28;20128;-88
2023/04/25 00:57:23;;;;;;;0.20;0.10;;;;;;;;;;4943739;28;20042;-87
2023/04/25 00:59:51;;;;;;;0.20;0.10;;;;;;;;;;4960732;28;20053;-86
2023/04/25 01:02:21;;;;;;;0.20;0.10;;;;;;;;;;4960607;28;20128;-90
2023/04/25 01:04:48;;;;;;;0.20;0.10;;;;;;;;;;4946281;28;20097;-87
2023/04/25 01:07:15;;;;;;;0.20;0.10;;;;;;;;;;4944410;28;20557;-89
2023/04/25 01:09:41;;;;;;;0.20;0.10;;;;;;;;;;4961964;28;20315;-89
2023/04/25 01:12:25;;;;;;;0.20;0.10;;;;;;;;;;4961486;28;20050;-89
2023/04/25 01:14:51;;;;;;;0.20;0.10;;;;;;;;;;4964096;28;20054;-87
2023/04/25 01:17:18;;;;;;;0.20;0.10;;;;;;;;;;4949354;28;20511;-87
2023/04/25 01:19:46;;;;;;;0.20;0.10;;;;;;;;;;4949128;28;20047;-88
2023/04/25 01:22:12;;;;;;;0.20;0.10;;;;;;;;;;4942753;28;20465;-87
2023/04/25 01:24:38;;;;;;;0.20;0.10;;;;;;;;;;4948068;28;20042;-88
2023/04/25 01:27:04;;;;;;;0.20;0.10;;;;;;;;;;4954373;28;20046;-87
2023/04/25 01:29:31;;;;;;;0.20;0.10;;;;;;;;;;4967302;28;20093;-89
2023/04/25 01:32:01;;;;;;;0.20;0.13;;;;;;;;;;4951138;28;20121;-89
2023/04/25 01:34:27;;;;;;;0.20;0.10;;;;;;;;;;4949322;28;20042;-88
2023/04/25 01:36:53;;;;;;;0.20;0.10;;;;;;;;;;4947862;28;20177;-88
2023/04/25 01:39:20;;;;;;;0.20;0.10;;;;;;;;;;4948801;28;20053;-88
2023/04/25 01:41:50;;;;;;;0.20;0.10;;;;;;;;;;4948352;28;20038;-88
2023/04/25 01:44:16;;;;;;;0.20;0.10;;;;;;;;;;4952671;28;20035;-88
2023/04/25 01:46:42;;;;;;;0.20;0.10;;;;;;;;;;4951167;28;20040;-89
2023/04/25 01:49:08;;;;;;;0.20;0.10;;;;;;;;;;4950582;28;20141;-89
2023/04/25 01:51:34;;;;;;;0.20;0.10;;;;;;;;;;4939004;28;20047;-89
2023/04/25 01:54:03;;;;;;;0.20;0.10;;;;;;;;;;4968211;28;20043;-90
2023/04/25 01:56:33;;;;;;;0.20;0.10;;;;;;;;;;4953845;28;20170;-89
2023/04/25 01:58:59;;;;;;;0.20;0.00;;;;;;;;;;4950322;28;20054;-88
2023/04/25 02:01:25;;;;;;;0.90;0.45;;;;;;;;;;4951697;28;20040;-88
2023/04/25 02:03:54;;;;;;;0.20;0.10;;;;;;;;;;4965272;28;20038;-88
2023/04/25 02:06:20;;;;;;;0.20;0.10;;;;;;;;;;4948716;28;20042;-88
2023/04/25 02:08:47;;;;;;;0.20;0.10;;;;;;;;;;4956663;23;20073;-83
2023/04/25 02:11:13;;;;;;;0.20;0.10;;;;;;;;;;4941474;28;20043;-82
2023/04/25 02:13:39;;;;;;;0.20;0.10;;;;;;;;;;4969943;28;20136;-83
2023/04/25 02:16:05;;;;;;;0.20;0.10;;;;;;;;;;4968602;28;20058;-83
2023/04/25 02:18:31;;;;;;;0.50;0.30;;;;;;;;;;4944375;28;20070;-83
2023/04/25 02:20:58;;;;;;;0.20;0.10;;;;;;;;;;4946333;28;20034;-82
2023/04/25 02:23:24;;;;;;;0.20;0.10;;;;;;;;;;4947324;28;20054;-84
2023/04/25 02:25:50;;;;;;;0.25;0.25;;;;;;;;;;4958639;28;20541;-84
2023/04/25 02:28:16;;;;;;;0.30;0.30;;;;;;;;;;4944844;28;20459;-84
2023/04/25 02:30:42;;;;;;;0.30;0.20;;;;;;;;;;4944754;28;20035;-84
2023/04/25 02:33:08;;;;;;;0.20;0.10;;;;;;;;;;4962242;28;20411;-83
2023/04/25 02:35:35;;;;;;;0.20;0.10;;;;;;;;;;4946197;28;20046;-82
2023/04/25 02:38:01;;;;;;;0.20;0.10;;;;;;;;;;4940754;28;20055;-83
2023/04/25 02:40:27;;;;;;;0.20;0.10;;;;;;;;;;4945962;28;20050;-83
2023/04/25 02:42:53;;;;;;;0.20;0.10;;;;;;;;;;4964363;28;20042;-83
2023/04/25 02:45:19;;;;;;;0.20;0.10;;;;;;;;;;4947514;28;20077;-83
2023/04/25 02:47:44;;;;;;;0.20;0.10;;;;;;;;;;4947497;28;20783;-84
2023/04/25 02:50:11;;;;;;;0.20;0.10;;;;;;;;;;4966108;28;20088;-83
2023/04/25 02:52:37;;;;;;;0.20;0.10;;;;;;;;;;4965047;28;20153;-82
2023/04/25 02:55:03;;;;;;;0.20;0.10;;;;;;;;;;4949842;28;21484;-84
2023/04/25 02:57:29;;;;;;;0.20;0.10;;;;;;;;;;4948665;28;20050;-82
2023/04/25 02:59:55;;;;;;;0.20;0.10;;;;;;;;;;4965177;28;20049;-81
2023/04/25 03:02:21;;;;;;;0.20;0.10;;;;;;;;;;4947224;28;20124;-82
2023/04/25 03:04:47;;;;;;;0.20;0.10;;;;;;;;;;4951036;28;20034;-84
2023/04/25 03:07:13;;;;;;;0.70;0.70;;;;;;;;;;4952557;28;20709;-84
2023/04/25 03:09:39;;;;;;;0.20;0.10;;;;;;;;;;4949844;28;20173;-86
2023/04/25 03:12:06;;;;;;;0.20;0.10;;;;;;;;;;4946629;28;20065;-82
2023/04/25 03:14:32;;;;;;;0.32;0.30;;;;;;;;;;4952208;28;20038;-82
2023/04/25 03:16:58;;;;;;;0.20;0.10;;;;;;;;;;4947825;28;20043;-83
2023/04/25 03:19:24;;;;;;;0.20;0.13;;;;;;;;;;4965599;28;20507;-83
2023/04/25 03:21:50;;;;;;;0.20;0.10;;;;;;;;;;4965230;28;20526;-82
2023/04/25 03:24:16;;;;;;;0.20;0.10;;;;;;;;;;4949608;28;20066;-82
2023/04/25 03:26:42;;;;;;;0.20;0.10;;;;;;;;;;4943913;28;20070;-85
2023/04/25 03:29:08;;;;;;;0.20;0.10;;;;;;;;;;4965170;28;20053;-80
2023/04/25 03:31:34;;;;;;;0.20;0.10;;;;;;;;;;4951284;28;20042;-84
2023/04/25 03:34:00;;;;;;;0.20;0.10;;;;;;;;;;4965759;28;20034;-84
2023/04/25 03:36:26;;;;;;;0.20;0.10;;;;;;;;;;4953432;28;20399;-82
2023/04/25 03:38:52;;;;;;;0.20;0.10;;;;;;;;;;4949933;28;20053;-84
2023/04/25 03:41:18;;;;;;;0.20;0.10;;;;;;;;;;4949952;28;20943;-85
2023/04/25 03:43:44;;;;;;;0.20;0.10;;;;;;;;;;4966574;28;20047;-84
2023/04/25 03:46:10;;;;;;;0.20;0.10;;;;;;;;;;4944963;28;20084;-82
2023/04/25 03:48:36;;;;;;;8.07;0.73;;;;;;;;;;4958356;28;20092;-82
2023/04/25 03:51:02;;;;;;;0.20;0.10;;;;;;;;;;4962070;28;20446;-84
2023/04/25 03:53:28;;;;;;;0.20;0.10;;;;;;;;;;4965598;28;20037;-83
2023/04/25 03:55:54;;;;;;;0.20;0.10;;;;;;;;;;4964986;28;20050;-82
2023/04/25 03:58:20;;;;;;;0.20;0.10;;;;;;;;;;4961462;28;20507;-82
2023/04/25 04:00:46;;;;;;;0.20;0.10;;;;;;;;;;4947741;28;20108;-82
2023/04/25 04:03:12;;;;;;;0.20;0.10;;;;;;;;;;4957833;28;20085;-82
2023/04/25 04:05:40;;;;;;;0.20;0.10;;;;;;;;;;4974110;28;20038;-83
2023/04/25 04:08:06;;;;;;;0.20;0.10;;;;;;;;;;4970427;28;20104;-81
2023/04/25 04:10:32;;;;;;;0.20;0.10;;;;;;;;;;4956555;28;20042;-83
2023/04/25 04:12:58;;;;;;;0.20;0.10;;;;;;;;;;4951397;28;20049;-83
2023/04/25 04:15:24;;;;;;;0.45;0.17;;;;;;;;;;4970377;28;20056;-81
2023/04/25 04:17:50;;;;;;;0.20;0.10;;;;;;;;;;4949311;28;20219;-84
2023/04/25 04:20:16;;;;;;;0.20;0.10;;;;;;;;;;4947445;28;20043;-83
2023/04/25 04:22:42;;;;;;;0.20;0.10;;;;;;;;;;4947123;28;20045;-83
2023/04/25 04:25:09;;;;;;;1.33;1.23;;;;;;;;;;4964102;28;20878;-84
2023/04/25 04:27:35;;;;;;;0.20;0.10;;;;;;;;;;4962400;28;20526;-82
2023/04/25 04:30:03;;;;;;;0.20;0.10;;;;;;;;;;4965765;28;20038;-83
2023/04/25 04:32:30;;;;;;;0.20;0.10;;;;;;;;;;4963538;28;20380;-84
2023/04/25 04:34:55;;;;;;;0.20;0.10;;;;;;;;;;4962841;28;20053;-83
2023/04/25 04:37:22;;;;;;;0.20;0.10;;;;;;;;;;4960261;28;20038;-80
2023/04/25 04:39:48;;;;;;;0.20;0.10;;;;;;;;;;4959537;28;20053;-82
2023/04/25 04:42:14;;;;;;;0.20;0.10;;;;;;;;;;4958115;28;20046;-82
2023/04/25 04:44:40;;;;;;;0.20;0.10;;;;;;;;;;4956707;28;20043;-82
2023/04/25 04:47:06;;;;;;;0.20;0.10;;;;;;;;;;4962421;28;20047;-81
2023/04/25 04:49:32;;;;;;;0.20;0.10;;;;;;;;;;4942411;28;20495;-79
2023/04/25 04:51:59;;;;;;;0.20;0.10;;;;;;;;;;4945927;28;20072;-82
2023/04/25 04:54:26;;;;;;;0.20;0.10;;;;;;;;;;4958140;28;20516;-82
2023/04/25 04:56:52;;;;;;;0.20;0.10;;;;;;;;;;4960736;28;20088;-81
2023/04/25 04:59:18;;;;;;;0.20;0.10;;;;;;;;;;4944133;28;20062;-81
2023/04/25 05:01:45;;;;;;;0.20;0.10;;;;;;;;;;4959710;28;20061;-83
2023/04/25 05:04:11;;;;;;;0.20;0.10;;;;;;;;;;4947455;28;20073;-83
2023/04/25 05:06:37;;;;;;;0.43;0.20;;;;;;;;;;4983060;28;20065;-78
2023/04/25 05:09:03;;;;;;;0.20;0.10;;;;;;;;;;4960313;28;20034;-83
2023/04/25 05:11:30;;;;;;;0.20;0.10;;;;;;;;;;4966224;28;20038;-81
2023/04/25 05:13:56;;;;;;;0.20;0.10;;;;;;;;;;4962294;28;20038;-83
2023/04/25 05:16:22;;;;;;;0.20;0.10;;;;;;;;;;4939742;28;20042;-83
2023/04/25 05:18:48;;;;;;;0.20;0.10;;;;;;;;;;4959890;28;20042;-85
2023/04/25 05:21:14;;;;;;;0.20;0.10;;;;;;;;;;4945786;28;20050;-83
2023/04/25 05:23:40;;;;;;;0.20;0.10;;;;;;;;;;4957246;28;20038;-84
2023/04/25 05:26:13;;;;;;;0.20;0.10;;;;;;;;;;4943679;28;20077;-82
2023/04/25 05:28:39;;;;;;;0.20;0.10;;;;;;;;;;4947059;28;20073;-83
2023/04/25 05:31:05;;;;;;;0.20;0.10;;;;;;;;;;4966371;28;20042;-81
2023/04/25 05:33:31;;;;;;;0.20;0.10;;;;;;;;;;4959300;28;20062;-81
2023/04/25 05:35:57;;;;;;;0.20;0.05;;;;;;;;;;4941815;28;20054;-80
2023/04/25 05:38:23;;;;;;;0.20;0.10;;;;;;;;;;4942380;28;20636;-80
2023/04/25 05:40:49;;;;;;;0.20;0.10;;;;;;;;;;4963971;28;20092;-84
2023/04/25 05:43:15;;;;;;;0.20;0.10;;;;;;;;;;4946724;28;20050;-83
2023/04/25 05:45:41;;;;;;;0.20;0.10;;;;;;;;;;4966656;28;20073;-83
2023/04/25 05:48:07;;;;;;;0.20;0.10;;;;;;;;;;4989204;28;20073;-83
2023/04/25 05:50:33;;;;;;;0.20;0.10;;;;;;;;;;4967891;28;20039;-84
2023/04/25 05:52:59;;;;;;;0.20;0.10;;;;;;;;;;4952273;28;20701;-83
2023/04/25 05:55:25;;;;;;;0.20;0.10;;;;;;;;;;4951106;28;20130;-83
2023/04/25 05:57:51;;;;;;;0.20;0.10;;;;;;;;;;4952991;28;20731;-83
2023/04/25 06:00:18;;;;;;;0.20;0.10;;;;;;;;;;4963335;28;20574;-83
2023/04/25 06:02:44;;;;;;;0.20;0.10;;;;;;;;;;4964956;28;20454;-82
2023/04/25 06:05:10;;;;;;;0.20;0.10;;;;;;;;;;4949904;28;20405;-85
2023/04/25 06:07:37;;;;;;;0.20;0.10;;;;;;;;;;4965747;28;20295;-83
2023/04/25 06:10:06;;;;;;;0.20;0.00;;;;;;;;;;4980301;28;20074;-81
2023/04/25 06:12:32;;;;;;;0.20;0.10;;;;;;;;;;4950263;28;20566;-82
2023/04/25 06:14:59;;;;;;;0.20;0.10;;;;;;;;;;4950449;28;20038;-84
2023/04/25 06:17:25;;;;;;;0.20;0.10;;;;;;;;;;4982312;28;20112;-82
2023/04/25 06:19:51;;;;;;;0.20;0.10;;;;;;;;;;4967321;28;20072;-83
2023/04/25 06:22:22;;;;;;;0.43;0.43;;;;;;;;;;4951045;28;20081;-84
2023/04/25 06:25:00;;;;;;;0.20;0.10;;;;;;;;;;4988064;28;20125;-83
2023/04/25 06:27:26;;;;;;;0.20;0.10;;;;;;;;;;4968914;28;20045;-81
2023/04/25 06:29:54;;;;;;;0.20;0.10;;;;;;;;;;4971689;28;20035;-84
2023/04/25 06:32:21;;;;;;;0.20;0.10;;;;;;;;;;4953358;28;20053;-83
2023/04/25 06:34:50;;;;;;;0.20;0.10;;;;;;;;;;4976324;28;20034;-82
2023/04/25 06:37:16;;;;;;;0.20;0.10;;;;;;;;;;4993425;28;20746;-83
2023/04/25 06:39:42;;;;;;;0.20;0.10;;;;;;;;;;4975960;28;20042;-84
2023/04/25 06:42:08;;;;;;;0.20;0.10;;;;;;;;;;4975074;28;20120;-84
2023/04/25 06:44:34;;;;;;;0.20;0.10;;;;;;;;;;4978002;28;20038;-82
2023/04/25 06:47:00;;;;;;;0.20;0.10;;;;;;;;;;4954457;28;20630;-84
2023/04/25 06:49:26;;;;;;;0.20;0.10;;;;;;;;;;4992984;28;20070;-83
2023/04/25 06:51:54;;;;;;;0.20;0.10;;;;;;;;;;4972335;28;20112;-82
2023/04/25 06:54:20;;;;;;;0.20;0.10;;;;;;;;;;4962364;28;20474;-83
2023/04/25 06:56:46;;;;;;;0.20;0.10;;;;;;;;;;4968351;28;20041;-85
2023/04/25 06:59:15;;;;;;;0.20;0.10;;;;;;;;;;4956027;28;20506;-86
2023/04/25 07:01:41;;;;;;;0.20;0.10;;;;;;;;;;4969556;28;20050;-84
2023/04/25 07:04:08;;;;;;;0.20;0.10;;;;;;;;;;4970497;28;20077;-83
2023/04/25 07:06:42;;;;;;;0.20;0.10;;;;;;;;;;4959747;28;20073;-83
2023/04/25 07:09:12;;;;;;;0.20;0.10;;;;;;;;;;4975601;28;20100;-83
2023/04/25 07:11:38;;;;;;;0.20;0.10;;;;;;;;;;4971485;28;20043;-84
2023/04/25 07:14:04;;;;;;;0.30;0.20;;;;;;;;;;4971097;28;20574;-85
2023/04/25 07:16:30;;;;;;;0.20;0.10;;;;;;;;;;4973821;28;20073;-82
2023/04/25 07:18:56;;;;;;;0.20;0.10;;;;;;;;;;4959929;28;20542;-82
2023/04/25 07:21:22;;;;;;;0.20;0.10;;;;;;;;;;4974161;28;20046;-83
2023/04/25 07:23:48;;;;;;;0.20;0.10;;;;;;;;;;4956936;28;20096;-83
2023/04/25 07:26:14;;;;;;;0.20;0.10;;;;;;;;;;4956765;28;20539;-83
2023/04/25 07:28:43;;;;;;;0.20;0.10;;;;;;;;;;4958124;28;20098;-84
2023/04/25 07:31:10;;;;;;;0.20;0.10;;;;;;;;;;4970751;28;20042;-85
2023/04/25 07:33:36;;;;;;;0.20;0.10;;;;;;;;;;4958349;28;20038;-86
2023/04/25 07:36:02;;;;;;;0.20;0.10;;;;;;;;;;4956941;28;20049;-83
2023/04/25 07:38:28;;;;;;;0.20;0.03;;;;;;;;;;4969495;28;20046;-83
2023/04/25 07:40:54;;;;;;;0.20;0.10;;;;;;;;;;4967745;28;20046;-81
2023/04/25 07:43:20;;;;;;;0.20;0.10;;;;;;;;;;4977251;28;20034;-82
2023/04/25 07:45:46;;;;;;;0.20;0.10;;;;;;;;;;4966924;28;20424;-83
2023/04/25 07:48:18;;;;;;;0.20;0.00;;;;;;;;;;4970788;28;20035;-81
2023/04/25 07:50:44;;;;;;;0.20;0.10;;;;;;;;;;4954955;28;20052;-83
2023/04/25 07:53:10;;;;;;;0.20;0.10;;;;;;;;;;4957685;28;20042;-84
2023/04/25 07:55:39;;;;;;;0.20;0.10;;;;;;;;;;4973163;28;20038;-83
2023/04/25 07:58:08;;;;;;;0.20;0.10;;;;;;;;;;4968620;28;20100;-83
2023/04/25 08:00:34;;;;;;;0.20;0.10;;;;;;;;;;4951647;28;20042;-85
2023/04/25 08:03:01;;;;;;;0.20;0.10;;;;;;;;;;4951481;28;20049;-83
2023/04/25 08:05:27;;;;;;;0.20;0.10;;;;;;;;;;4949638;28;20140;-83
2023/04/25 08:07:56;;;;;;;0.20;0.10;;;;;;;;;;4954198;28;20054;-85
2023/04/25 08:12:51;;;;;;;0.20;0.10;;;;;;;;;;4978471;28;20715;-87
2023/04/25 08:15:22;;;;;;;0.20;0.10;;;;;;;;;;4952381;28;20038;-86
2023/04/25 08:18:17;;;;;;;0.20;0.10;;;;;;;;;;4943777;28;20050;-85
2023/04/25 08:20:46;;;;;;;0.20;0.10;;;;;;;;;;4923121;28;20233;-88
2023/04/25 08:23:21;;;;;;;0.20;0.10;;;;;;;;;;4928819;28;20105;-91
2023/04/25 08:26:14;;;;;;;;;;;;;;;;;;;;;
2023/04/25 08:29:06;;;;;;;0.20;0.00;;;;;;;;;;4961944;28;20103;-87
2023/04/25 08:31:32;;;;;;;0.20;0.10;;;;;;;;;;4950517;28;20042;-88
2023/04/25 08:34:01;;;;;;;0.20;0.08;;;;;;;;;;4936547;28;20438;-86
2023/04/25 08:36:33;;;;;;;0.20;0.10;;;;;;;;;;4926803;28;20030;-88
2023/04/25 08:38:59;;;;;;;0.20;0.10;;;;;;;;;;4927691;28;20137;-85
2023/04/25 08:41:26;;;;;;;0.20;0.10;;;;;;;;;;4930509;28;20043;-86
2023/04/25 08:43:52;;;;;;;0.20;0.10;;;;;;;;;;4930132;28;20089;-87
2023/04/25 08:46:19;;;;;;;0.20;0.10;;;;;;;;;;4941704;28;20097;-85
2023/04/25 08:48:45;;;;;;;0.20;0.10;;;;;;;;;;4929175;28;20073;-86
2023/04/25 08:51:16;;;;;;;0.20;0.10;;;;;;;;;;4930647;28;20043;-86
2023/04/25 08:53:42;;;;;;;0.20;0.10;;;;;;;;;;4944444;28;20054;-87
2023/04/25 08:56:09;;;;;;;0.20;0.10;;;;;;;;;;4948233;28;20043;-86
2023/04/25 08:58:51;;;;;;;0.20;0.10;;;;;;;;;;4929537;28;20742;-88
2023/04/25 09:01:18;;;;;;;0.20;0.10;;;;;;;;;;4932477;28;20416;-87
2023/04/25 09:03:47;;;;;;;0.20;0.10;;;;;;;;;;4937728;28;20042;-85
2023/04/25 09:06:23;;;;;;;0.20;0.10;;;;;;;;;;4927301;28;20030;-89
2023/04/25 09:08:53;;;;;;;0.20;0.10;;;;;;;;;;4947966;28;20125;-85
2023/04/25 09:11:33;;;;;;;;;;;;;;;;;;;;;
2023/04/25 09:14:30;;;;;;;0.30;0.20;;;;;;;;;;4953277;28;20551;-89
2023/04/25 09:17:44;;;;;;;0.20;0.10;;;;;;;;;;4932717;28;20397;-91
2023/04/25 09:20:35;;;;;;;0.20;0.10;;;;;;;;;;4944520;28;20408;-89
2023/04/25 09:23:06;;;;;;;0.20;0.10;;;;;;;;;;4946668;28;20039;-88
2023/04/25 09:25:45;;;;;;;0.20;0.10;;;;;;;;;;4932624;28;20046;-88
2023/04/25 09:28:13;;;;;;;0.20;0.10;;;;;;;;;;4949902;28;20126;-86
2023/04/25 09:31:00;;;;;;;0.20;0.10;;;;;;;;;;4947860;28;20102;-85
2023/04/25 09:33:46;;;;;;;0.20;0.10;;;;;;;;;;4952721;28;20128;-88
2023/04/25 09:36:15;;;;;;;0.20;0.10;;;;;;;;;;4935186;28;20110;-90
2023/04/25 09:38:48;;;;;;;0.20;0.10;;;;;;;;;;4935018;28;20057;-91
2023/04/25 09:41:22;;;;;;;0.20;0.10;;;;;;;;;;4950086;28;20042;-89
2023/04/25 09:43:52;;;;;;;0.20;0.10;;;;;;;;;;4949315;28;21114;-88
2023/04/25 09:46:20;;;;;;;0.20;0.10;;;;;;;;;;4935521;28;20644;-88
2023/04/25 09:48:51;;;;;;;0.20;0.10;;;;;;;;;;4935939;28;20054;-88
2023/04/25 09:51:32;;;;;;;0.20;0.10;;;;;;;;;;4938287;28;20508;-89
2023/04/25 09:54:00;;;;;;;0.20;0.10;;;;;;;;;;4937435;28;20043;-88
2023/04/25 10:00:13;;;;;;;0.20;0.10;;;;;;;;;;4976031;23;20042;-88
2023/04/25 10:02:41;;;;;;;;;;;;;;;;;;4948622;28;20384;-89
2023/04/25 10:05:19;;;;;;;0.20;0.10;;;;;;;;;;4949498;28;19933;-89
2023/04/25 10:08:03;;;;;;;0.20;0.10;;;;;;;;;;4948632;28;20303;-89
2023/04/25 10:10:32;;;;;;;0.20;0.10;;;;;;;;;;5105221;23;20165;-85
2023/04/25 10:13:03;;;;;;;0.20;0.00;;;;;;;;;;4965123;28;20043;-88
2023/04/25 10:15:30;;;;;;;0.20;0.10;;;;;;;;;;4959062;28;20042;-87
2023/04/25 10:18:00;;;;;;;0.20;0.10;;;;;;;;;;4947267;28;20078;-87
2023/04/25 10:20:29;;;;;;;0.20;0.10;;;;;;;;;;4949059;28;20042;-85
2023/04/25 10:22:58;;;;;;;0.20;0.10;;;;;;;;;;4951828;28;20412;-86
2023/04/25 10:25:31;;;;;;;0.20;0.03;;;;;;;;;;4941492;28;20038;-88
2023/04/25 10:27:57;;;;;;;0.20;0.10;;;;;;;;;;4953179;28;20072;-85
2023/04/25 10:30:26;;;;;;;0.30;0.20;;;;;;;;;;4965235;28;20524;-87
2023/04/25 10:32:56;;;;;;;0.20;0.10;;;;;;;;;;4965742;28;20082;-89
2023/04/25 10:35:30;;;;;;;0.20;0.10;;;;;;;;;;4954805;28;20053;-86
2023/04/25 10:38:12;;;;;;;0.20;0.10;;;;;;;;;;4965255;28;20034;-86
2023/04/25 10:40:41;;;;;;;0.20;0.10;;;;;;;;;;4948379;28;20065;-88
2023/04/25 10:43:41;;;;;;;0.20;0.10;;;;;;;;;;4978089;28;20046;-86
2023/04/25 10:49:37;;;;;;;0.20;0.10;;;;;;;;;;4870687;29;20044;-88
2023/04/25 10:52:13;;;;;;;0.20;0.10;;;;;;;;;;4877081;28;20078;-88
2023/04/25 10:54:53;;;;;;;;;;;;;;;;;;4954553;28;20141;-88
2023/04/25 10:57:41;;;;;;;0.20;0.10;;;;;;;;;;4946852;28;19925;-87
2023/04/25 11:00:12;;;;;;;0.20;0.10;;;;;;;;;;4962592;28;20054;-89
2023/04/25 11:02:52;;;;;;;0.20;0.10;;;;;;;;;;4960551;28;20038;-88
2023/04/25 11:05:30;;;;;;;0.20;0.10;;;;;;;;;;4962290;28;20051;-86
2023/04/25 11:08:05;;;;;;;0.20;0.10;;;;;;;;;;4965466;28;20042;-86
2023/04/25 11:10:44;;;;;;;0.20;0.10;;;;;;;;;;4955524;28;20141;-87
2023/04/25 11:13:14;;;;;;;0.20;0.10;;;;;;;;;;4964984;28;20418;-83
2023/04/25 11:15:48;;;;;;;0.20;0.00;;;;;;;;;;4954750;28;20423;-85
2023/04/25 11:21:43;;;;;;;0.20;0.10;;;;;;;;;;4930925;28;20051;-88
2023/04/25 11:24:25;;;;;;;0.20;0.10;;;;;;;;;;4943127;28;20054;-87
2023/04/25 11:26:55;;;;;;;0.20;0.10;;;;;;;;;;4951619;28;20045;-88
2023/04/25 11:29:26;;;;;;;0.20;0.10;;;;;;;;;;4951570;28;20121;-87
2023/04/25 11:31:55;;;;;;;0.20;0.20;;;;;;;;;;4949023;28;20043;-82
2023/04/25 11:34:21;;;;;;;0.20;0.10;;;;;;;;;;4965794;28;20038;-84
2023/04/25 11:36:55;;;;;;;0.20;0.10;;;;;;;;;;4967092;28;20061;-86
2023/04/25 11:39:33;;;;;;;0.20;0.10;;;;;;;;;;4956482;28;20521;-88
2023/04/25 11:42:12;;;;;;;0.20;0.10;;;;;;;;;;4947829;28;20046;-86
2023/04/25 11:44:40;;;;;;;0.20;0.10;;;;;;;;;;4951975;28;20046;-83
2023/04/25 11:47:28;;;;;;;0.20;0.10;;;;;;;;;;4970935;28;20045;-83
2023/04/25 11:50:10;;;;;;;0.20;0.10;;;;;;;;;;4970838;28;20043;-86
2023/04/25 11:56:18;;;;;;;0.20;0.10;;;;;;;;;;4943761;28;19927;-87
2023/04/25 12:02:06;;;;;;;0.20;0.10;;;;;;;;;;4969637;28;20116;-88
2023/04/25 12:04:38;;;;;;;0.20;0.20;;;;;;;;;;4953741;28;20291;-87
2023/04/25 12:07:13;;;;;;;0.20;0.10;;;;;;;;;;4945879;28;20050;-87
2023/04/25 12:15:47;;;;;;;0.20;0.10;;;;;;;;;;4920756;28;20046;-85
2023/04/25 12:18:13;;;;;;;0.20;0.10;;;;;;;;;;4965563;28;20596;-86
2023/04/25 12:20:42;;;;;;;0.20;0.10;;;;;;;;;;4959145;28;20535;-87
2023/04/25 12:23:22;;;;;;;0.20;0.10;;;;;;;;;;4964900;28;20101;-87
2023/04/25 12:25:48;;;;;;;0.20;0.10;;;;;;;;;;4955093;28;20043;-88
2023/04/25 12:31:12;;;;;;;0.20;0.05;;;;;;;;;;4942945;28;20586;-91
2023/04/25 12:33:43;;;;;;;0.20;0.10;;;;;;;;;;4961111;28;20090;-90
2023/04/25 12:36:13;;;;;;;0.20;0.00;;;;;;;;;;4931144;28;20051;-84
2023/04/25 12:38:40;;;;;;;0.20;0.10;;;;;;;;;;4957160;28;20515;-86
2023/04/25 12:41:09;;;;;;;0.20;0.10;;;;;;;;;;4925446;29;20198;-88
2023/04/25 12:46:45;;;;;;;0.20;0.10;;;;;;;;;;4910517;29;20135;-86
2023/04/25 12:49:16;;;;;;;0.20;0.10;;;;;;;;;;4910996;29;20392;-87
2023/04/25 12:52:00;;;;;;;0.32;0.20;;;;;;;;;;4938587;28;20146;-89
2023/04/25 12:54:29;;;;;;;0.20;0.10;;;;;;;;;;4927967;28;20066;-87
2023/04/25 12:57:03;;;;;;;0.20;0.10;;;;;;;;;;4943273;28;20250;-87
2023/04/25 12:59:41;;;;;;;0.20;0.10;;;;;;;;;;4948225;28;20291;-88
2023/04/25 13:02:10;;;;;;;0.20;0.10;;;;;;;;;;4940280;28;20242;-90
2023/04/25 13:04:42;;;;;;;0.20;0.10;;;;;;;;;;4928310;29;20102;-85
2023/04/25 13:07:09;;;;;;;0.20;0.10;;;;;;;;;;4928911;29;20036;-85
2023/04/25 13:09:35;;;;;;;0.20;0.10;;;;;;;;;;4943073;28;20090;-84
2023/04/25 13:12:14;;;;;;;0.20;0.10;;;;;;;;;;4941887;28;20067;-87
2023/04/25 13:14:43;;;;;;;0.20;0.10;;;;;;;;;;4925591;29;20405;-85
2023/04/25 13:17:14;;;;;;;0.20;0.10;;;;;;;;;;4925953;28;20078;-86
2023/04/25 13:19:43;;;;;;;0.20;0.10;;;;;;;;;;4941338;28;20089;-88
2023/04/25 13:22:16;;;;;;;0.20;0.10;;;;;;;;;;4926044;29;20433;-86
2023/04/25 13:25:18;;;;;;;0.20;0.10;;;;;;;;;;4926035;29;20035;-87
2023/04/25 13:27:47;;;;;;;0.20;0.10;;;;;;;;;;4871972;29;20052;-89
2023/04/25 13:30:47;;;;;;;0.20;0.10;;;;;;;;;;4949619;28;20059;-87
2023/04/25 13:33:54;;;;;;;0.20;0.10;;;;;;;;;;4936499;28;20504;-87
2023/04/25 13:36:34;;;;;;;;;;;;;;;;;;;;;
2023/04/25 13:48:29;;;;;;;;;;;;;;;;;;;;;
2023/04/25 13:51:07;;;;;;;0.20;0.10;;;;;;;;;;4919836;28;20459;-87
2023/04/25 13:53:36;;;;;;;0.20;0.10;;;;;;;;;;4927647;28;20043;-91
2023/04/25 13:56:21;;;;;;;0.20;0.10;;;;;;;;;;4927490;28;20038;-89
2023/04/25 13:59:06;;;;;;;0.20;0.10;;;;;;;;;;4926080;28;20100;-89
2023/04/25 14:01:41;;;;;;;0.20;0.10;;;;;;;;;;4946154;28;20130;-88
2023/04/25 14:04:13;;;;;;;0.20;0.05;;;;;;;;;;4921799;28;20054;-88
2023/04/25 14:06:39;;;;;;;0.20;0.10;;;;;;;;;;4926946;28;20051;-87
2023/04/25 14:09:14;;;;;;;0.20;0.10;;;;;;;;;;4959034;23;20089;-87
2023/04/25 14:11:42;;;;;;;0.32;0.30;;;;;;;;;;4929201;28;20093;-85
2023/04/25 14:14:16;;;;;;;0.20;0.10;;;;;;;;;;4931060;28;20403;-85
2023/04/25 14:17:06;;;;;;;;;;;;;;;;;;;;;
2023/04/25 14:20:02;;;;;;;0.20;0.10;;;;;;;;;;4962498;28;20156;-86
2023/04/25 14:22:28;;;;;;;0.20;0.10;;;;;;;;;;4944808;28;20051;-84
2023/04/25 14:24:54;;;;;;;0.20;0.10;;;;;;;;;;4949894;28;20367;-84
2023/04/25 14:27:20;;;;;;;0.20;0.10;;;;;;;;;;4947855;28;20061;-84
2023/04/25 14:29:50;;;;;;;0.20;0.10;;;;;;;;;;4943201;28;20046;-84
2023/04/25 14:32:20;;;;;;;0.20;0.10;;;;;;;;;;4948337;28;20400;-83
2023/04/25 14:34:49;;;;;;;0.20;0.10;;;;;;;;;;4949881;28;20043;-85
2023/04/25 14:37:15;;;;;;;0.20;0.10;;;;;;;;;;4965632;28;20140;-84
2023/04/25 14:39:44;;;;;;;0.20;0.10;;;;;;;;;;4964666;28;20459;-87
2023/04/25 14:42:22;;;;;;;0.20;0.10;;;;;;;;;;4954446;28;20459;-86
2023/04/25 14:44:51;;;;;;;0.20;0.10;;;;;;;;;;4952777;28;20046;-83
2023/04/25 14:47:19;;;;;;;0.20;0.10;;;;;;;;;;4951720;28;20043;-85
2023/04/25 14:49:57;;;;;;;0.20;0.10;;;;;;;;;;4947079;28;20053;-86
2023/04/25 14:52:26;;;;;;;0.20;0.10;;;;;;;;;;4948996;28;20122;-82
2023/04/25 14:55:00;;;;;;;0.20;0.10;;;;;;;;;;4950942;28;20043;-85
2023/04/25 14:57:29;;;;;;;0.20;0.10;;;;;;;;;;4946733;28;20042;-85
2023/04/25 14:59:55;;;;;;;0.20;0.10;;;;;;;;;;4943747;28;20294;-83
2023/04/25 15:02:21;;;;;;;0.22;0.10;;;;;;;;;;4942881;28;20050;-83
2023/04/25 15:04:47;;;;;;;0.20;0.10;;;;;;;;;;4951015;28;20087;-85
2023/04/25 15:07:19;;;;;;;2.40;0.80;;;;;;;;;;4946226;28;20130;-80
2023/04/25 15:09:45;;;;;;;0.20;0.10;;;;;;;;;;4948474;28;20050;-84
2023/04/25 15:12:11;;;;;;;0.20;0.10;;;;;;;;;;4947502;28;20043;-84
2023/04/25 15:14:43;;;;;;;0.20;0.10;;;;;;;;;;4962106;28;20049;-89
2023/04/25 15:17:09;;;;;;;0.20;0.10;;;;;;;;;;4944770;28;20054;-85
2023/04/25 15:19:36;;;;;;;0.20;0.10;;;;;;;;;;4942066;28;20698;-85
2023/04/25 15:22:10;;;;;;;0.20;0.10;;;;;;;;;;4952444;28;20043;-86
2023/04/25 15:24:37;;;;;;;0.20;0.10;;;;;;;;;;4948550;28;20093;-85
2023/04/25 15:27:04;;;;;;;0.20;0.10;;;;;;;;;;4953667;28;20133;-83
2023/04/25 15:29:33;;;;;;;0.20;0.10;;;;;;;;;;4948652;28;20046;-86
2023/04/25 15:32:01;;;;;;;0.20;0.10;;;;;;;;;;4952687;28;20062;-85
2023/04/25 15:34:35;;;;;;;0.20;0.10;;;;;;;;;;4955247;28;20042;-88
2023/04/25 15:37:01;;;;;;;0.20;0.10;;;;;;;;;;4971953;28;20046;-85
2023/04/25 15:39:27;;;;;;;0.20;0.10;;;;;;;;;;4950566;28;20169;-83
2023/04/25 15:41:53;;;;;;;0.20;0.10;;;;;;;;;;4939037;28;20082;-86
2023/04/25 15:44:22;;;;;;;0.20;0.10;;;;;;;;;;4942471;28;20030;-86